Time;durP1;ratioP1;P1;durP2;ratioP2;P2;SDS_P1;SDS_P2;PMS_P1;PMS_P2;Temp;Humidity;BMP_temperature;BMP_pressure;BME280_temperature;BME280_humidity;BME280_pressure;Samples;Min_cycle;Max_cycle;Signal;HPM_P1;HPM_P2
2023/07/18 04:02:38;;;;;;;5.83;2.43;;;13.80;99.90;;;;;;4988716;28;20575;-72
2023/07/18 04:05:05;;;;;;;2.23;2.00;;;13.80;99.90;;;;;;4993606;28;20458;-72
2023/07/18 04:07:32;;;;;;;3.37;3.03;;;13.90;99.90;;;;;;4992459;28;20503;-73
2023/07/18 04:09:59;;;;;;;3.43;2.80;;;14.00;99.90;;;;;;4993607;28;21050;-72
2023/07/18 04:12:26;;;;;;;2.93;2.73;;;14.00;99.90;;;;;;4993381;28;20911;-72
2023/07/18 04:14:52;;;;;;;2.43;2.43;;;14.00;99.90;;;;;;4993865;28;20825;-72
2023/07/18 04:17:19;;;;;;;5.20;2.63;;;14.10;99.90;;;;;;4993604;28;20470;-73
2023/07/18 04:19:47;;;;;;;3.00;2.80;;;14.10;99.90;;;;;;4993374;28;20458;-73
2023/07/18 04:22:14;;;;;;;5.63;3.13;;;14.20;99.90;;;;;;4992320;28;20486;-73
2023/07/18 04:24:40;;;;;;;4.10;3.70;;;14.30;99.90;;;;;;4992820;28;20476;-73
2023/07/18 04:27:07;;;;;;;2.50;2.40;;;14.20;99.90;;;;;;4993321;28;20473;-72
2023/07/18 04:29:34;;;;;;;2.67;1.97;;;14.30;99.90;;;;;;4993188;28;20495;-73
2023/07/18 04:32:00;;;;;;;4.47;2.27;;;14.40;99.90;;;;;;4992825;28;20483;-72
2023/07/18 04:34:27;;;;;;;8.70;4.17;;;14.50;99.90;;;;;;4992930;28;20466;-72
2023/07/18 04:36:55;;;;;;;6.13;3.70;;;14.70;99.90;;;;;;4992193;28;20462;-72
2023/07/18 04:39:22;;;;;;;3.63;3.33;;;14.90;99.90;;;;;;4990014;28;20463;-73
2023/07/18 04:41:49;;;;;;;4.80;4.40;;;15.30;99.90;;;;;;4993306;28;20861;-73
2023/07/18 04:44:16;;;;;;;2.47;2.37;;;15.60;99.90;;;;;;4994387;28;20470;-72
2023/07/18 04:46:42;;;;;;;3.70;3.40;;;15.70;99.90;;;;;;4994810;28;20562;-74
2023/07/18 04:49:09;;;;;;;7.13;3.30;;;15.70;99.90;;;;;;4994044;28;20490;-72
2023/07/18 04:51:36;;;;;;;2.00;1.80;;;15.80;99.90;;;;;;4992251;28;20898;-72
2023/07/18 04:54:04;;;;;;;4.47;4.17;;;16.00;99.90;;;;;;4992935;28;20497;-73
2023/07/18 04:56:31;;;;;;;3.53;3.23;;;16.30;99.90;;;;;;4992815;28;20494;-73
2023/07/18 04:58:58;;;;;;;2.47;2.37;;;16.50;99.90;;;;;;4992986;28;20463;-73
2023/07/18 05:01:24;;;;;;;2.50;2.33;;;16.70;99.90;;;;;;4992344;28;20869;-72
2023/07/18 05:03:51;;;;;;;2.07;2.03;;;16.70;99.90;;;;;;4992380;28;20982;-73
2023/07/18 05:06:18;;;;;;;2.87;2.70;;;16.60;99.90;;;;;;4991925;28;20467;-72
2023/07/18 05:08:44;;;;;;;1.87;1.77;;;16.40;99.90;;;;;;4992734;28;20462;-72
2023/07/18 05:11:12;;;;;;;2.77;2.60;;;16.20;99.90;;;;;;4992086;28;20569;-73
2023/07/18 05:13:39;;;;;;;2.27;2.03;;;16.10;99.90;;;;;;4992573;28;20472;-72
2023/07/18 05:16:06;;;;;;;2.13;2.07;;;16.10;99.90;;;;;;4992061;28;20467;-73
2023/07/18 05:18:33;;;;;;;2.17;2.07;;;16.20;99.90;;;;;;4992253;28;20482;-72
2023/07/18 05:20:59;;;;;;;2.17;2.07;;;16.50;99.90;;;;;;4991828;28;20485;-72
2023/07/18 05:23:27;;;;;;;3.57;2.57;;;17.20;99.90;;;;;;4992538;28;20466;-72
2023/07/18 05:25:56;;;;;;;3.10;2.80;;;17.80;99.90;;;;;;4991826;28;20557;-73
2023/07/18 05:28:24;;;;;;;2.20;2.20;;;17.90;99.90;;;;;;4992258;28;20542;-73
2023/07/18 05:30:51;;;;;;;2.73;2.43;;;18.00;99.90;;;;;;4991662;28;20518;-73
2023/07/18 05:33:18;;;;;;;2.13;1.90;;;18.20;99.90;;;;;;4992583;28;20466;-73
2023/07/18 05:35:45;;;;;;;2.07;2.07;;;18.30;99.90;;;;;;4993650;28;20466;-73
2023/07/18 05:38:11;;;;;;;1.70;1.60;;;18.40;99.90;;;;;;4994259;28;20474;-73
2023/07/18 05:40:38;;;;;;;2.40;2.30;;;18.60;99.90;;;;;;4992167;28;20483;-73
2023/07/18 05:43:05;;;;;;;2.27;2.07;;;18.40;99.90;;;;;;4994147;28;20973;-73
2023/07/18 05:45:33;;;;;;;2.40;2.20;;;18.30;99.90;;;;;;4994341;28;20481;-68
2023/07/18 05:48:00;;;;;;;2.17;2.10;;;18.10;99.90;;;;;;4994666;28;20488;-73
2023/07/18 05:50:26;;;;;;;2.17;2.07;;;18.00;99.90;;;;;;4994258;28;20492;-73
2023/07/18 05:52:54;;;;;;;1.90;1.90;;;18.00;99.90;;;;;;4998205;28;20506;-73
2023/07/18 05:55:20;;;;;;;2.93;2.83;;;17.90;99.90;;;;;;4999855;28;20471;-73
2023/07/18 05:57:48;;;;;;;1.00;0.93;;;17.80;99.90;;;;;;4998198;28;20468;-73
2023/07/18 06:00:16;;;;;;;2.23;2.13;;;17.80;99.90;;;;;;4996001;28;20463;-74
2023/07/18 06:02:44;;;;;;;2.47;2.37;;;17.80;99.90;;;;;;5017783;28;20466;-73
2023/07/18 06:05:11;;;;;;;1.90;1.80;;;17.90;99.90;;;;;;5014462;28;20498;-73
2023/07/18 06:07:38;;;;;;;4.03;2.50;;;18.30;99.90;;;;;;5011654;28;20502;-73
2023/07/18 06:10:05;;;;;;;3.93;1.87;;;19.20;99.90;;;;;;5011343;28;20511;-73
2023/07/18 06:12:32;;;;;;;2.10;2.10;;;19.80;99.90;;;;;;5011062;28;20486;-73
2023/07/18 06:14:59;;;;;;;1.87;1.57;;;20.00;99.90;;;;;;5010912;28;20470;-73
2023/07/18 06:17:26;;;;;;;1.50;1.40;;;20.20;99.90;;;;;;5010878;28;20760;-73
2023/07/18 06:19:54;;;;;;;1.87;1.77;;;20.50;99.90;;;;;;5010666;28;20468;-73
2023/07/18 06:22:20;;;;;;;1.80;1.70;;;21.10;99.90;;;;;;5009959;28;20830;-73
2023/07/18 06:24:47;;;;;;;1.50;1.50;;;21.40;99.90;;;;;;5010742;28;20475;-73
2023/07/18 06:27:14;;;;;;;1.53;1.53;;;21.30;99.90;;;;;;5011223;28;20503;-73
2023/07/18 06:29:41;;;;;;;1.50;1.50;;;21.40;99.90;;;;;;5010235;28;20997;-73
2023/07/18 06:32:08;;;;;;;1.33;1.33;;;21.80;99.90;;;;;;5010570;28;20486;-73
2023/07/18 06:34:40;;;;;;;1.50;1.50;;;22.30;99.90;;;;;;5010905;28;20779;-73
2023/07/18 06:37:08;;;;;;;1.50;1.50;;;23.00;99.90;;;;;;5010105;28;20604;-73
2023/07/18 06:39:36;;;;;;;1.47;1.47;;;23.20;99.90;;;;;;5010304;28;20485;-73
2023/07/18 06:42:05;;;;;;;1.13;1.13;;;23.50;99.90;;;;;;5010767;28;20516;-73
2023/07/18 06:44:31;;;;;;;1.40;1.33;;;23.90;99.90;;;;;;5010618;28;20461;-73
2023/07/18 06:46:58;;;;;;;1.67;1.57;;;23.70;99.90;;;;;;5010414;28;20466;-74
2023/07/18 06:49:25;;;;;;;2.73;1.87;;;24.00;99.90;;;;;;5010472;28;20818;-73
2023/07/18 06:51:52;;;;;;;1.93;1.83;;;24.10;99.90;;;;;;5009645;28;20482;-74
2023/07/18 06:54:20;;;;;;;1.40;1.40;;;24.10;99.90;;;;;;5010106;28;20497;-73
2023/07/18 06:56:46;;;;;;;1.33;1.33;;;23.90;99.90;;;;;;5010340;28;20473;-74
2023/07/18 06:59:14;;;;;;;1.50;1.40;;;23.70;99.90;;;;;;5010166;28;20477;-73
2023/07/18 07:01:42;;;;;;;1.50;1.40;;;23.90;99.90;;;;;;5009911;28;20512;-73
2023/07/18 07:04:10;;;;;;;1.77;1.67;;;23.70;99.90;;;;;;5010226;28;20474;-73
2023/07/18 07:06:41;;;;;;;1.40;1.40;;;23.50;99.90;;;;;;5009185;28;20568;-72
2023/07/18 07:09:08;;;;;;;1.63;1.20;;;23.00;99.90;;;;;;5010121;28;20517;-73
2023/07/18 07:11:37;;;;;;;0.70;0.70;;;23.00;99.90;;;;;;5014092;28;20892;-73
2023/07/18 07:14:06;;;;;;;1.80;1.70;;;23.30;99.90;;;;;;5013897;28;20566;-73
2023/07/18 07:16:33;;;;;;;1.10;1.00;;;23.50;99.90;;;;;;5013892;28;20469;-73
2023/07/18 07:19:00;;;;;;;1.80;1.43;;;23.70;99.90;;;;;;5014053;28;20469;-73
2023/07/18 07:21:28;;;;;;;1.90;1.50;;;23.70;99.90;;;;;;5013032;28;20493;-73
2023/07/18 07:23:54;;;;;;;1.70;1.57;;;23.80;99.90;;;;;;5013608;28;20577;-73
2023/07/18 07:26:21;;;;;;;1.00;1.00;;;23.90;99.90;;;;;;5013666;28;20465;-73
2023/07/18 07:28:49;;;;;;;1.10;1.10;;;23.90;99.90;;;;;;5013833;28;20466;-72
2023/07/18 07:31:16;;;;;;;1.13;1.13;;;23.80;99.90;;;;;;5013671;28;20499;-73
2023/07/18 07:33:43;;;;;;;4.73;2.13;;;23.70;99.90;;;;;;5013670;28;20468;-73
2023/07/18 07:36:09;;;;;;;0.80;0.80;;;23.60;99.90;;;;;;5012494;28;20479;-73
2023/07/18 07:38:37;;;;;;;1.20;1.20;;;23.00;99.90;;;;;;5013638;28;20465;-73
2023/07/18 07:41:04;;;;;;;1.13;1.13;;;22.90;99.90;;;;;;5013498;28;20553;-73
2023/07/18 07:43:31;;;;;;;1.27;1.17;;;23.10;99.90;;;;;;5013954;28;20473;-72
2023/07/18 07:45:59;;;;;;;1.23;1.23;;;22.90;99.90;;;;;;5013344;28;20809;-72
2023/07/18 07:48:26;;;;;;;1.37;1.27;;;22.60;99.90;;;;;;5013287;28;20822;-72
2023/07/18 07:50:53;;;;;;;3.97;1.40;;;22.80;99.90;;;;;;5012515;28;20507;-72
2023/07/18 07:53:19;;;;;;;4.80;1.30;;;23.30;99.90;;;;;;5013624;28;20883;-72
2023/07/18 07:55:46;;;;;;;1.93;0.67;;;23.40;99.90;;;;;;5013187;28;20510;-72
2023/07/18 07:58:12;;;;;;;0.90;0.90;;;23.40;99.90;;;;;;5013449;28;20475;-72
2023/07/18 08:00:38;;;;;;;0.87;0.87;;;23.70;99.90;;;;;;5013194;28;20491;-73
2023/07/18 08:03:06;;;;;;;1.10;1.10;;;24.20;99.90;;;;;;5013216;28;20203;-72
2023/07/18 08:05:33;;;;;;;1.03;1.03;;;24.60;99.90;;;;;;5012989;28;20470;-72
2023/07/18 08:08:00;;;;;;;1.23;1.13;;;24.80;99.90;;;;;;5012259;28;20859;-72
2023/07/18 08:10:27;;;;;;;2.23;1.53;;;24.70;99.90;;;;;;5012860;28;20517;-72
2023/07/18 08:12:53;;;;;;;0.93;0.80;;;24.70;99.90;;;;;;5012854;28;20470;-72
2023/07/18 08:15:21;;;;;;;0.80;0.80;;;24.50;99.90;;;;;;5012638;28;20470;-72
2023/07/18 08:17:49;;;;;;;0.83;0.83;;;24.70;99.90;;;;;;5012692;28;20466;-72
2023/07/18 08:20:17;;;;;;;0.80;0.80;;;24.80;99.90;;;;;;5012749;28;20559;-72
2023/07/18 08:22:44;;;;;;;0.60;0.60;;;24.90;99.90;;;;;;5011714;28;20461;-72
2023/07/18 08:25:10;;;;;;;1.20;0.87;;;25.00;99.90;;;;;;5012369;28;20962;-72
2023/07/18 08:27:37;;;;;;;0.70;0.70;;;24.70;99.90;;;;;;5014520;28;20473;-71
2023/07/18 08:30:04;;;;;;;1.43;0.70;;;24.30;99.90;;;;;;5013177;28;20565;-73
2023/07/18 08:32:31;;;;;;;0.87;0.87;;;24.80;99.90;;;;;;5012736;28;20489;-72
2023/07/18 08:34:58;;;;;;;0.70;0.70;;;25.20;99.90;;;;;;5012517;28;20462;-72
2023/07/18 08:37:26;;;;;;;1.10;1.10;;;25.60;99.90;;;;;;5012308;28;20462;-73
2023/07/18 08:39:52;;;;;;;0.50;0.50;;;25.90;99.90;;;;;;5010316;28;20474;-72
2023/07/18 08:42:24;;;;;;;0.43;0.43;;;25.30;99.90;;;;;;5012231;28;20478;-72
2023/07/18 08:44:53;;;;;;;1.13;1.13;;;24.80;99.90;;;;;;5012000;28;20473;-72
2023/07/18 08:47:21;;;;;;;0.87;0.87;;;24.70;99.90;;;;;;5011879;28;20469;-72
2023/07/18 08:49:48;;;;;;;0.70;0.70;;;24.70;99.90;;;;;;5012358;28;20864;-71
2023/07/18 08:52:15;;;;;;;0.80;0.77;;;24.40;99.90;;;;;;5011455;28;20497;-74
2023/07/18 08:54:43;;;;;;;1.60;1.03;;;24.30;99.90;;;;;;5011996;28;20469;-72
2023/07/18 08:57:12;;;;;;;0.80;0.80;;;24.00;99.90;;;;;;5011969;28;20470;-73
2023/07/18 08:59:40;;;;;;;0.53;0.53;;;24.10;99.90;;;;;;5012090;28;20952;-73
2023/07/18 09:02:06;;;;;;;0.70;0.70;;;23.80;99.90;;;;;;5011822;28;20963;-72
2023/07/18 09:04:33;;;;;;;1.40;0.87;;;23.50;99.90;;;;;;5011764;28;20472;-72
2023/07/18 09:07:01;;;;;;;0.40;0.40;;;23.60;99.90;;;;;;5011087;28;20474;-72
2023/07/18 09:09:28;;;;;;;0.63;0.63;;;23.80;99.90;;;;;;5011928;28;20487;-72
2023/07/18 09:11:57;;;;;;;0.73;0.73;;;23.70;99.90;;;;;;5011291;28;20497;-73
2023/07/18 09:14:26;;;;;;;0.33;0.33;;;23.80;99.90;;;;;;5011728;28;20470;-72
2023/07/18 09:16:53;;;;;;;1.03;0.70;;;23.80;99.90;;;;;;5011516;28;20992;-73
2023/07/18 09:19:20;;;;;;;1.07;0.70;;;23.60;99.90;;;;;;5011955;28;21024;-72
2023/07/18 09:21:47;;;;;;;0.50;0.50;;;23.40;99.90;;;;;;5010697;28;20488;-72
2023/07/18 09:24:14;;;;;;;1.10;0.50;;;23.20;99.90;;;;;;5011718;28;20933;-72
2023/07/18 09:26:41;;;;;;;0.30;0.30;;;23.10;99.90;;;;;;5011631;28;20487;-71
2023/07/18 09:29:12;;;;;;;0.70;0.70;;;23.20;99.90;;;;;;5011699;28;20500;-72
2023/07/18 09:31:39;;;;;;;2.77;0.77;;;23.20;99.90;;;;;;5011201;28;20495;-73
2023/07/18 09:34:12;;;;;;;0.70;0.53;;;23.30;99.90;;;;;;5010421;28;20499;-74
2023/07/18 09:36:39;;;;;;;2.77;0.90;;;23.20;99.90;;;;;;5010508;28;20500;-72
2023/07/18 09:39:07;;;;;;;0.40;0.40;;;23.40;99.90;;;;;;5011022;28;20463;-73
2023/07/18 09:41:35;;;;;;;0.97;0.50;;;23.50;99.90;;;;;;5010973;28;20502;-72
2023/07/18 09:44:04;;;;;;;0.43;0.40;;;23.50;99.90;;;;;;5011315;28;20863;-73
2023/07/18 09:46:33;;;;;;;0.63;0.63;;;23.50;99.90;;;;;;5011237;28;20529;-73
2023/07/18 09:49:00;;;;;;;0.53;0.53;;;23.50;99.90;;;;;;5011117;28;20485;-73
2023/07/18 09:51:31;;;;;;;1.37;0.57;;;23.40;99.90;;;;;;5010044;28;20588;-73
2023/07/18 09:53:58;;;;;;;0.87;0.50;;;23.40;99.90;;;;;;5010752;28;20479;-74
2023/07/18 09:56:28;;;;;;;0.97;0.57;;;23.40;99.90;;;;;;5010806;28;20474;-74
2023/07/18 09:58:56;;;;;;;1.13;0.40;;;23.40;99.90;;;;;;5010971;28;20788;-74
2023/07/18 10:01:24;;;;;;;0.60;0.60;;;23.50;99.90;;;;;;5010588;28;20833;-74
2023/07/18 10:03:54;;;;;;;0.40;0.40;;;23.40;99.90;;;;;;5010612;28;20563;-74
2023/07/18 10:06:29;;;;;;;2.00;0.90;;;23.40;99.90;;;;;;5086935;27;20875;-73
2023/07/18 10:08:56;;;;;;;0.63;0.63;;;23.50;99.90;;;;;;5087529;28;20457;-73
2023/07/18 10:11:23;;;;;;;0.30;0.30;;;23.50;99.90;;;;;;5087283;28;20549;-73
2023/07/18 10:14:14;;;;;;;0.30;0.30;;;23.60;99.90;;;;;;5098614;22;20501;-71
2023/07/18 10:16:42;;;;;;;1.50;0.40;;;23.70;99.90;;;;;;5056812;28;20488;-70
2023/07/18 10:19:19;;;;;;;0.33;0.33;;;23.80;99.90;;;;;;5068005;28;20497;-69
2023/07/18 10:21:47;;;;;;;0.47;0.47;;;23.80;99.90;;;;;;5067205;28;20469;-69
2023/07/18 10:24:28;;;;;;;1.33;0.80;;;23.90;99.90;;;;;;5073814;22;20477;-68
2023/07/18 10:26:58;;;;;;;0.40;0.40;;;23.90;99.90;;;;;;5027393;28;20479;-69
2023/07/18 10:29:25;;;;;;;1.10;0.60;;;24.00;99.90;;;;;;5027707;28;20464;-69
2023/07/18 10:31:54;;;;;;;1.33;0.83;;;23.80;99.90;;;;;;5027374;28;20852;-69
2023/07/18 10:34:20;;;;;;;0.57;0.57;;;23.80;99.90;;;;;;5027015;28;20484;-69
2023/07/18 10:36:58;;;;;;;0.70;0.70;;;23.90;99.90;;;;;;5026972;28;20461;-69
2023/07/18 10:39:38;;;;;;;0.50;0.50;;;23.80;99.90;;;;;;5033547;28;20517;-69
2023/07/18 10:42:07;;;;;;;0.47;0.47;;;23.80;99.90;;;;;;5040856;28;20464;-69
2023/07/18 10:44:34;;;;;;;1.23;0.53;;;24.00;99.90;;;;;;5046502;28;20521;-69
2023/07/18 10:47:01;;;;;;;0.30;0.30;;;24.20;99.90;;;;;;5046676;28;20467;-70
2023/07/18 10:49:28;;;;;;;0.73;0.73;;;24.20;99.90;;;;;;5046801;28;20830;-69
2023/07/18 10:51:56;;;;;;;0.87;0.40;;;24.10;99.90;;;;;;5045897;28;20459;-69
2023/07/18 10:54:23;;;;;;;0.63;0.63;;;24.10;99.90;;;;;;5046529;28;20609;-69
2023/07/18 10:56:50;;;;;;;0.53;0.53;;;24.10;99.90;;;;;;5046642;28;20464;-69
2023/07/18 10:59:16;;;;;;;0.60;0.60;;;24.30;99.90;;;;;;5046558;28;20471;-69
2023/07/18 11:01:43;;;;;;;0.40;0.40;;;24.60;99.90;;;;;;5046380;28;20972;-69
2023/07/18 11:04:10;;;;;;;0.20;0.20;;;24.90;99.90;;;;;;5046268;28;20491;-69
2023/07/18 11:06:36;;;;;;;0.80;0.80;;;24.90;99.90;;;;;;5045626;28;20493;-69
2023/07/18 11:09:12;;;;;;;0.40;0.40;;;24.90;99.90;;;;;;5046374;28;20971;-69
2023/07/18 11:11:38;;;;;;;0.80;0.70;;;24.90;99.90;;;;;;5046607;28;20503;-69
2023/07/18 11:14:05;;;;;;;0.73;0.60;;;24.90;99.90;;;;;;5046157;28;20979;-69
2023/07/18 11:16:32;;;;;;;0.50;0.50;;;25.00;99.90;;;;;;5039892;28;20473;-69
2023/07/18 11:18:59;;;;;;;2.00;0.63;;;25.20;99.90;;;;;;5032868;28;20835;-67
2023/07/18 11:21:27;;;;;;;0.67;0.67;;;25.20;99.90;;;;;;5032374;28;20537;-69
2023/07/18 11:23:55;;;;;;;1.43;0.50;;;25.40;99.90;;;;;;5032840;28;20553;-68
2023/07/18 11:26:23;;;;;;;0.40;0.40;;;25.60;99.90;;;;;;5032357;28;20536;-69
2023/07/18 11:28:51;;;;;;;0.80;0.80;;;25.50;99.90;;;;;;5033319;28;20467;-69
2023/07/18 11:31:22;;;;;;;0.20;0.20;;;25.50;99.90;;;;;;5032265;28;20474;-69
2023/07/18 11:33:49;;;;;;;0.40;0.30;;;25.60;99.90;;;;;;5032832;28;20483;-68
2023/07/18 11:36:17;;;;;;;0.50;0.50;;;25.60;99.90;;;;;;5031714;28;20497;-69
2023/07/18 11:38:44;;;;;;;0.57;0.57;;;25.50;99.90;;;;;;5026704;28;20473;-68
2023/07/18 11:41:14;;;;;;;0.53;0.53;;;25.40;99.90;;;;;;5012413;28;20461;-69
2023/07/18 11:43:42;;;;;;;0.40;0.40;;;25.30;99.90;;;;;;5012695;28;21049;-68
2023/07/18 11:46:09;;;;;;;0.50;0.50;;;25.40;99.90;;;;;;5012291;28;20493;-69
2023/07/18 11:48:36;;;;;;;1.37;0.40;;;25.50;99.90;;;;;;5012693;28;20468;-69
2023/07/18 11:51:04;;;;;;;0.30;0.30;;;25.50;99.90;;;;;;5011913;28;20836;-69
2023/07/18 11:53:32;;;;;;;3.83;0.70;;;25.40;99.90;;;;;;5015010;28;20488;-69
2023/07/18 11:55:59;;;;;;;0.70;0.70;;;25.50;99.90;;;;;;5014597;28;20974;-70
2023/07/18 11:58:26;;;;;;;0.40;0.40;;;25.50;99.90;;;;;;5014834;28;20490;-68
2023/07/18 12:00:58;;;;;;;0.60;0.60;;;25.50;99.90;;;;;;5013472;28;20508;-69
2023/07/18 12:03:25;;;;;;;1.03;0.57;;;25.60;99.90;;;;;;5012926;28;20489;-68
2023/07/18 12:05:52;;;;;;;0.90;0.90;;;25.70;99.90;;;;;;5011780;28;20481;-70
2023/07/18 12:08:19;;;;;;;0.50;0.50;;;25.70;99.90;;;;;;5013067;28;20470;-70
2023/07/18 12:10:46;;;;;;;0.40;0.40;;;25.70;99.90;;;;;;5012399;28;20463;-70
2023/07/18 12:13:13;;;;;;;0.33;0.33;;;25.70;99.90;;;;;;5012222;28;20483;-69
2023/07/18 12:15:39;;;;;;;0.30;0.27;;;25.70;99.90;;;;;;5012236;28;20460;-70
2023/07/18 12:18:07;;;;;;;0.70;0.70;;;25.80;99.90;;;;;;5012295;28;20474;-70
2023/07/18 12:20:34;;;;;;;0.70;0.70;;;25.70;99.90;;;;;;5012302;28;20467;-70
2023/07/18 12:23:01;;;;;;;3.80;0.60;;;25.60;99.90;;;;;;5011288;28;20467;-70
2023/07/18 12:25:31;;;;;;;0.37;0.37;;;25.50;99.90;;;;;;5011543;28;20487;-69
2023/07/18 12:27:58;;;;;;;0.30;0.30;;;25.50;99.90;;;;;;5010968;28;21051;-69
2023/07/18 12:30:26;;;;;;;0.43;0.43;;;25.40;99.90;;;;;;5012104;28;20469;-69
2023/07/18 12:32:53;;;;;;;1.23;0.47;;;25.30;99.90;;;;;;5011960;28;20466;-69
2023/07/18 12:35:21;;;;;;;0.23;0.23;;;25.30;99.90;;;;;;5011643;28;20964;-70
2023/07/18 12:37:48;;;;;;;0.43;0.43;;;25.30;99.90;;;;;;5011249;28;20463;-70
2023/07/18 12:40:17;;;;;;;0.40;0.40;;;25.40;99.90;;;;;;5011502;28;20471;-70
2023/07/18 12:42:44;;;;;;;0.40;0.37;;;25.60;99.90;;;;;;5011846;28;20472;-70
2023/07/18 12:45:11;;;;;;;0.50;0.50;;;25.70;99.90;;;;;;5011464;28;20502;-71
2023/07/18 12:47:38;;;;;;;0.40;0.40;;;25.80;99.90;;;;;;5011613;28;20555;-70
2023/07/18 12:50:06;;;;;;;0.97;0.97;;;25.90;99.90;;;;;;5011501;28;20466;-69
2023/07/18 12:52:34;;;;;;;0.50;0.50;;;25.90;99.90;;;;;;5011180;28;20871;-70
2023/07/18 12:55:01;;;;;;;0.90;0.40;;;25.90;99.90;;;;;;5011232;28;20488;-70
2023/07/18 12:57:27;;;;;;;1.23;0.60;;;25.80;99.90;;;;;;5011309;28;20837;-70
2023/07/18 12:59:54;;;;;;;0.47;0.47;;;25.60;99.90;;;;;;5011250;28;20973;-69
2023/07/18 13:02:21;;;;;;;0.33;0.33;;;25.70;99.90;;;;;;5011370;28;20823;-70
2023/07/18 13:04:48;;;;;;;0.43;0.43;;;25.70;99.90;;;;;;5010893;28;20483;-69
2023/07/18 13:07:15;;;;;;;0.43;0.43;;;25.70;99.90;;;;;;5010307;28;20522;-70
2023/07/18 13:09:43;;;;;;;0.50;0.50;;;25.60;99.90;;;;;;5011140;28;20468;-69
2023/07/18 13:12:10;;;;;;;0.50;0.50;;;25.50;99.90;;;;;;5011102;28;20496;-70
2023/07/18 13:14:37;;;;;;;0.40;0.40;;;25.60;99.90;;;;;;5010690;28;20490;-70
2023/07/18 13:17:04;;;;;;;0.77;0.50;;;25.80;99.90;;;;;;5010924;28;20474;-70
2023/07/18 13:19:31;;;;;;;1.13;0.30;;;25.90;99.90;;;;;;5011189;28;20474;-70
2023/07/18 13:21:58;;;;;;;0.93;0.60;;;26.00;99.90;;;;;;5010178;28;21011;-69
2023/07/18 13:24:24;;;;;;;0.60;0.60;;;26.10;99.90;;;;;;5010627;28;20845;-70
2023/07/18 13:26:53;;;;;;;0.53;0.53;;;26.20;99.90;;;;;;5010807;28;20519;-70
2023/07/18 13:29:20;;;;;;;0.50;0.47;;;26.30;99.90;;;;;;5010930;28;20474;-70
2023/07/18 13:31:47;;;;;;;0.40;0.40;;;26.40;99.90;;;;;;5010736;28;20471;-69
2023/07/18 13:34:15;;;;;;;2.53;0.60;;;26.20;99.90;;;;;;5010231;28;20489;-69
2023/07/18 13:36:41;;;;;;;0.33;0.33;;;26.20;99.90;;;;;;5010250;28;20465;-69
2023/07/18 13:39:08;;;;;;;0.67;0.67;;;26.40;99.90;;;;;;5017515;28;20489;-70
2023/07/18 13:41:35;;;;;;;0.20;0.20;;;26.30;99.90;;;;;;5011220;28;20962;-69
2023/07/18 13:44:03;;;;;;;0.97;0.50;;;26.30;99.90;;;;;;5010534;28;20579;-69
2023/07/18 13:46:30;;;;;;;0.63;0.50;;;26.40;99.90;;;;;;5010528;28;20825;-70
2023/07/18 13:48:56;;;;;;;1.07;0.70;;;26.50;99.90;;;;;;5010589;28;20468;-70
2023/07/18 13:51:23;;;;;;;2.73;0.50;;;26.30;99.90;;;;;;5009776;28;20476;-69
2023/07/18 13:53:51;;;;;;;0.47;0.47;;;26.10;99.90;;;;;;5010702;28;20484;-70
2023/07/18 13:56:17;;;;;;;0.47;0.47;;;25.80;99.90;;;;;;5010373;28;20563;-70
2023/07/18 13:58:44;;;;;;;0.53;0.53;;;25.60;99.90;;;;;;5010827;28;20570;-70
2023/07/18 14:01:12;;;;;;;0.40;0.40;;;25.50;99.90;;;;;;5010383;28;20471;-70
2023/07/18 14:03:39;;;;;;;1.47;0.37;;;25.40;99.90;;;;;;5010546;28;20487;-70
2023/07/18 14:06:06;;;;;;;1.17;0.47;;;25.40;99.90;;;;;;5009493;28;20593;-70
2023/07/18 14:08:33;;;;;;;0.70;0.70;;;25.40;99.90;;;;;;5010687;28;20467;-70
2023/07/18 14:11:00;;;;;;;0.50;0.30;;;25.20;99.90;;;;;;5010436;28;20895;-70
2023/07/18 14:13:27;;;;;;;0.60;0.60;;;25.00;99.90;;;;;;5010200;28;20564;-70
2023/07/18 14:15:54;;;;;;;1.00;0.97;;;24.80;99.90;;;;;;5009316;28;20492;-69
2023/07/18 14:18:22;;;;;;;0.50;0.47;;;24.60;99.90;;;;;;5010518;28;20461;-70
2023/07/18 14:20:49;;;;;;;0.40;0.40;;;24.50;99.90;;;;;;5010229;28;20917;-69
2023/07/18 14:23:16;;;;;;;0.50;0.50;;;24.40;99.90;;;;;;5010367;28;20492;-70
2023/07/18 14:25:43;;;;;;;0.83;0.83;;;24.30;99.90;;;;;;5010505;28;20492;-70
2023/07/18 14:28:09;;;;;;;0.20;0.20;;;24.30;99.90;;;;;;5010150;28;20472;-70
2023/07/18 14:30:36;;;;;;;0.60;0.50;;;24.30;99.90;;;;;;5010146;28;20505;-70
2023/07/18 14:33:03;;;;;;;0.50;0.50;;;24.20;99.90;;;;;;5010056;28;20468;-70
2023/07/18 14:35:32;;;;;;;0.73;0.40;;;24.20;99.90;;;;;;5009970;28;20468;-71
2023/07/18 14:37:58;;;;;;;0.50;0.50;;;24.10;99.90;;;;;;5009427;28;20616;-70
2023/07/18 14:40:25;;;;;;;0.40;0.40;;;23.90;99.90;;;;;;5027118;28;20463;-70
2023/07/18 14:42:52;;;;;;;0.40;0.40;;;23.80;99.90;;;;;;5029649;28;20468;-70
2023/07/18 14:45:19;;;;;;;2.73;0.70;;;23.70;99.90;;;;;;5029649;28;20497;-70
2023/07/18 14:47:45;;;;;;;0.30;0.30;;;23.60;99.90;;;;;;5029620;28;20489;-70
2023/07/18 14:50:12;;;;;;;0.30;0.30;;;23.50;99.90;;;;;;5029782;28;20467;-71
2023/07/18 14:52:40;;;;;;;0.80;0.80;;;23.40;99.90;;;;;;5031590;28;20961;-71
2023/07/18 14:55:07;;;;;;;0.40;0.40;;;23.30;99.90;;;;;;5033461;28;20486;-70
2023/07/18 14:57:34;;;;;;;0.40;0.40;;;23.20;99.90;;;;;;5033399;28;20457;-70
2023/07/18 15:00:03;;;;;;;1.50;0.47;;;23.10;99.90;;;;;;5033841;28;20473;-70
2023/07/18 15:02:30;;;;;;;0.50;0.50;;;23.00;99.90;;;;;;5033871;28;20836;-70
2023/07/18 15:04:56;;;;;;;0.97;0.77;;;22.90;99.90;;;;;;5036954;28;20491;-70
2023/07/18 15:07:23;;;;;;;0.43;0.43;;;22.90;99.90;;;;;;5036358;28;20495;-72
2023/07/18 15:09:52;;;;;;;0.60;0.60;;;22.90;99.90;;;;;;5036748;28;20812;-70
2023/07/18 15:12:19;;;;;;;0.50;0.50;;;22.90;99.90;;;;;;5035403;28;20461;-71
2023/07/18 15:14:46;;;;;;;0.60;0.60;;;22.80;99.90;;;;;;5033564;28;20481;-71
2023/07/18 15:17:12;;;;;;;1.00;1.00;;;22.70;99.90;;;;;;5033228;28;20476;-70
2023/07/18 15:19:39;;;;;;;0.70;0.70;;;22.70;99.90;;;;;;5033200;28;20483;-70
2023/07/18 15:22:06;;;;;;;0.80;0.80;;;22.70;99.90;;;;;;5032570;28;20466;-71
2023/07/18 15:24:33;;;;;;;0.57;0.57;;;22.60;99.90;;;;;;5033025;28;20499;-70
2023/07/18 15:27:01;;;;;;;1.10;1.10;;;22.50;99.90;;;;;;5032663;28;20494;-70
2023/07/18 15:29:27;;;;;;;0.40;0.40;;;22.40;99.90;;;;;;5033390;28;20667;-70
2023/07/18 15:31:54;;;;;;;0.80;0.80;;;22.20;99.90;;;;;;5033013;28;20475;-70
2023/07/18 15:34:21;;;;;;;0.50;0.50;;;22.20;99.90;;;;;;5032367;28;20487;-70
2023/07/18 15:36:48;;;;;;;0.67;0.67;;;22.10;99.90;;;;;;5032012;28;20467;-70
2023/07/18 15:39:15;;;;;;;0.60;0.60;;;22.10;99.90;;;;;;5032190;28;20491;-70
2023/07/18 15:41:41;;;;;;;3.43;0.90;;;22.00;99.90;;;;;;5012873;28;20621;-71
2023/07/18 15:44:09;;;;;;;0.40;0.40;;;22.00;99.90;;;;;;5012932;28;20629;-69
2023/07/18 15:46:38;;;;;;;1.10;1.00;;;22.00;99.90;;;;;;5012784;28;20226;-70
2023/07/18 15:49:05;;;;;;;0.53;0.53;;;21.90;99.90;;;;;;5012894;28;20543;-71
2023/07/18 15:51:32;;;;;;;0.93;0.87;;;21.80;99.90;;;;;;5012262;28;20475;-70
2023/07/18 15:53:59;;;;;;;0.60;0.60;;;21.70;99.90;;;;;;5012336;28;20488;-71
2023/07/18 15:56:26;;;;;;;0.60;0.60;;;21.70;99.90;;;;;;5012825;28;20816;-70
2023/07/18 15:58:53;;;;;;;0.77;0.77;;;21.60;99.90;;;;;;5013054;28;20476;-70
2023/07/18 16:01:21;;;;;;;0.30;0.30;;;21.70;99.90;;;;;;5012570;28;20530;-71
2023/07/18 16:03:47;;;;;;;1.10;0.73;;;21.70;99.90;;;;;;5012753;28;20535;-71
2023/07/18 16:06:14;;;;;;;0.37;0.37;;;21.80;99.90;;;;;;5011446;28;20503;-71
2023/07/18 16:08:41;;;;;;;0.60;0.60;;;21.80;99.90;;;;;;5012437;28;20787;-70
2023/07/18 16:11:07;;;;;;;0.70;0.47;;;21.80;99.90;;;;;;5012567;28;20544;-71
2023/07/18 16:13:35;;;;;;;0.50;0.50;;;21.80;99.90;;;;;;5039612;22;20583;-72
2023/07/18 16:16:04;;;;;;;0.83;0.60;;;21.90;99.90;;;;;;5029819;28;20582;-72
2023/07/18 16:18:32;;;;;;;0.63;0.63;;;21.90;99.90;;;;;;5032106;28;20507;-73
2023/07/18 16:20:58;;;;;;;0.60;0.60;;;22.00;99.90;;;;;;5031064;28;20483;-72
2023/07/18 16:23:25;;;;;;;0.53;0.53;;;22.10;99.90;;;;;;5032161;28;20483;-72
2023/07/18 16:25:52;;;;;;;0.40;0.40;;;22.40;99.90;;;;;;5031659;28;20483;-72
2023/07/18 16:28:18;;;;;;;1.27;0.50;;;22.60;99.90;;;;;;5028654;28;20827;-72
2023/07/18 16:30:45;;;;;;;1.33;0.63;;;22.80;99.90;;;;;;5031110;28;20469;-72
2023/07/18 16:33:12;;;;;;;0.50;0.50;;;23.00;99.90;;;;;;5031039;28;20466;-72
2023/07/18 16:35:40;;;;;;;0.50;0.50;;;23.10;99.90;;;;;;5030821;28;20475;-74
2023/07/18 16:38:07;;;;;;;0.30;0.30;;;23.10;99.90;;;;;;5030658;28;20875;-73
2023/07/18 16:40:35;;;;;;;0.40;0.40;;;23.20;99.90;;;;;;5022511;28;20497;-73
2023/07/18 16:43:04;;;;;;;0.70;0.70;;;23.00;99.90;;;;;;5045887;28;20463;-72
2023/07/18 16:45:31;;;;;;;0.30;0.30;;;23.00;99.90;;;;;;5050561;28;20594;-74
2023/07/18 16:47:57;;;;;;;0.47;0.47;;;22.90;99.90;;;;;;5050467;28;20487;-73
2023/07/18 16:50:24;;;;;;;0.50;0.50;;;22.80;99.90;;;;;;5051251;28;20821;-72